Map

Track Data

SID SEASON NUMBER BASIN SUBBASIN NAME ISO_TIME NATURE LAT LON WMO_WIND WMO_PRES WMO_AGENCY TRACK_TYPE DIST2LAND LANDFALL IFLAG USA_AGENCY USA_ATCF_ID USA_LAT USA_LON USA_RECORD USA_STATUS USA_WIND USA_PRES USA_SSHS USA_R34_NE USA_R34_SE USA_R34_SW USA_R34_NW USA_R50_NE USA_R50_SE USA_R50_SW USA_R50_NW USA_R64_NE USA_R64_SE USA_R64_SW USA_R64_NW USA_POCI USA_ROCI USA_RMW USA_EYE TOKYO_LAT TOKYO_LON TOKYO_GRADE TOKYO_WIND TOKYO_PRES TOKYO_R50_DIR TOKYO_R50_LONG TOKYO_R50_SHORT TOKYO_R30_DIR TOKYO_R30_LONG TOKYO_R30_SHORT TOKYO_LAND CMA_LAT CMA_LON CMA_CAT CMA_WIND CMA_PRES HKO_LAT HKO_LON HKO_CAT HKO_WIND HKO_PRES NEWDELHI_LAT NEWDELHI_LON NEWDELHI_GRADE NEWDELHI_WIND NEWDELHI_PRES NEWDELHI_CI NEWDELHI_DP NEWDELHI_POCI REUNION_LAT REUNION_LON REUNION_TYPE REUNION_WIND REUNION_PRES REUNION_TNUM REUNION_CI REUNION_RMW REUNION_R34_NE REUNION_R34_SE REUNION_R34_SW REUNION_R34_NW REUNION_R50_NE REUNION_R50_SE REUNION_R50_SW REUNION_R50_NW REUNION_R64_NE REUNION_R64_SE REUNION_R64_SW REUNION_R64_NW BOM_LAT BOM_LON BOM_TYPE BOM_WIND BOM_PRES BOM_TNUM BOM_CI BOM_RMW BOM_R34_NE BOM_R34_SE BOM_R34_SW BOM_R34_NW BOM_R50_NE BOM_R50_SE BOM_R50_SW BOM_R50_NW BOM_R64_NE BOM_R64_SE BOM_R64_SW BOM_R64_NW BOM_ROCI BOM_POCI BOM_EYE BOM_POS_METHOD BOM_PRES_METHOD NADI_LAT NADI_LON NADI_CAT NADI_WIND NADI_PRES WELLINGTON_LAT WELLINGTON_LON WELLINGTON_WIND WELLINGTON_PRES DS824_LAT DS824_LON DS824_STAGE DS824_WIND DS824_PRES TD9636_LAT TD9636_LON TD9636_STAGE TD9636_WIND TD9636_PRES TD9635_LAT TD9635_LON TD9635_WIND TD9635_PRES TD9635_ROCI NEUMANN_LAT NEUMANN_LON NEUMANN_CLASS NEUMANN_WIND NEUMANN_PRES MLC_LAT MLC_LON MLC_CLASS MLC_WIND MLC_PRES USA_GUST BOM_GUST BOM_GUST_PER REUNION_GUST REUNION_GUST_PER USA_SEAHGT USA_SEARAD_NE USA_SEARAD_SE USA_SEARAD_SW USA_SEARAD_NW STORM_SPEED STORM_DIR
1968060S14167 1968 20 SP MM FLORENCE 1968-02-29 00:00:00 TS -13.8000 166.600 main 100 92 O________OO_O_ jtwc_sh SH291968 -13.8000 166.600 -1 -13.8000 166.600 TC 65 -13.8000 166.600 4 -13.8000 166.600 TC 20 10 254
1968060S14167 1968 20 SP MM FLORENCE 1968-02-29 03:00:00 TS -13.9427 166.100 main 104 95 P________PP_P_ SH291968 -13.9452 166.105 -1 -13.9452 166.105 TC 65 -13.9352 166.084 4 -13.9452 166.105 TC 22 10 253
1968060S14167 1968 20 SP MM FLORENCE 1968-02-29 06:00:00 TS -14.0965 165.594 main 124 124 O________OP_O_ jtwc_sh SH291968 -14.1000 165.600 -1 -14.1000 165.600 TC 65 -14.0859 165.575 4 -14.1000 165.600 TC 25 10 251
1968060S14167 1968 20 SP MM FLORENCE 1968-02-29 09:00:00 TS -14.2753 165.083 main 160 160 P________PP_P_ SH291968 -14.2775 165.085 -1 -14.2775 165.085 TC 65 -14.2686 165.078 4 -14.2775 165.085 TC 27 10 247
1968060S14167 1968 20 SP MM FLORENCE 1968-02-29 12:00:00 TS -14.5000 164.600 main 207 207 O________OO_O_ jtwc_sh SH291968 -14.5000 164.600 -1 -14.5000 164.600 TC 65 -14.5000 164.600 4 -14.5000 164.600 TC 30 10 240
1968060S14167 1968 20 SP MM FLORENCE 1968-02-29 15:00:00 TS -14.7857 164.176 main 247 247 P________PP_P_ SH291968 -14.7848 164.185 -1 -14.7848 164.185 TC 65 -14.7882 164.147 4 -14.7848 164.185 TC 30 10 233
1968060S14167 1968 20 SP MM FLORENCE 1968-02-29 18:00:00 TS -15.1018 163.781 main 292 292 O________OP_O_ jtwc_sh SH291968 -15.1000 163.800 -1 -15.1000 163.800 TC 65 -15.1073 163.726 4 -15.1000 163.800 TC 30 10 231
1968060S14167 1968 20 SP MM FLORENCE 1968-02-29 21:00:00 TS -15.4226 163.372 main 339 339 P________PP_P_ SH291968 -15.4225 163.385 -1 -15.4225 163.385 TC 65 -15.4227 163.341 4 -15.4225 163.378 TC 32 10 232
1968060S14167 1968 20 SP MM FLORENCE 1968-03-01 00:00:00 TS -15.7000 163.000 main 387 387 O________OO_O_ jtwc_sh SH291968 -15.7000 163.000 -1 -15.7000 163.000 TC 65 -15.7000 163.000 4 -15.7000 163.000 TC 35 8 236
1968060S14167 1968 20 SP MM FLORENCE 1968-03-01 03:00:00 TS -15.8745 162.678 main 421 421 P________PP_P_ SH291968 -15.8724 162.670 -1 -15.8724 162.670 TC 65 -15.8808 162.646 4 -15.8724 162.727 TC 35 6 242
1968060S14167 1968 20 SP MM FLORENCE 1968-03-01 06:00:00 TS -16.0056 162.411 main 454 454 O________OP_O_ jtwc_sh SH291968 -16.0000 162.400 -1 -16.0000 162.400 TC 65 -16.0223 162.342 4 -16.0000 162.500 TC 35 6 242
1968060S14167 1968 20 SP MM FLORENCE 1968-03-01 09:00:00 TS -16.1394 162.164 main 477 477 P________PP_P_ SH291968 -16.1350 162.162 -1 -16.1350 162.162 TC 65 -16.1527 162.118 4 -16.1351 162.213 TC 37 5 233
1968060S14167 1968 20 SP MM FLORENCE 1968-03-01 12:00:00 TS -16.3000 162.000 main 489 474 O________OO_O_ jtwc_sh SH291968 -16.3000 162.000 -1 -16.3000 162.000 TC 65 -16.3000 162.000 4 -16.3000 162.000 TC 40 5 212
1968060S14167 1968 20 SP MM FLORENCE 1968-03-01 15:00:00 TS -16.5335 161.907 main 474 445 P________PP_P_ SH291968 -16.5424 161.875 -1 -16.5424 161.875 TC 65 -16.5068 161.952 4 -16.5424 161.925 TC 40 5 184
1968060S14167 1968 20 SP MM FLORENCE 1968-03-01 18:00:00 TS -16.7835 161.954 main 440 415 O________OP_O_ jtwc_sh SH291968 -16.8000 161.900 -1 -16.8000 161.900 TC 65 -16.7340 162.018 4 -16.8000 162.000 TC 40 5 153
1968060S14167 1968 20 SP MM FLORENCE 1968-03-01 21:00:00 TS -16.9978 162.152 main 410 375 P________PP_P_ SH291968 -17.0074 162.118 -1 -17.0074 162.118 TC 65 -16.9691 162.199 4 -17.0074 162.175 TC 42 7 129
1968060S14167 1968 20 SP MM FLORENCE 1968-03-02 00:00:00 TS -17.2000 162.500 main 375 337 O________OO_O_ jtwc_sh SH291968 -17.2000 162.500 -1 -17.2000 162.500 TC 65 -17.2000 162.500 4 -17.2000 162.500 TC 45 9 118
1968060S14167 1968 20 SP MM FLORENCE 1968-03-02 03:00:00 TS -17.4020 162.948 main 337 297 P________PP_P_ SH291968 -17.4000 162.963 -1 -17.4000 162.963 TC 65 -17.4079 162.914 4 -17.4000 162.955 TC 45 10 113
1968060S14167 1968 20 SP MM FLORENCE 1968-03-02 06:00:00 TS -17.6021 163.484 main 297 268 O________OP_O_ jtwc_sh SH291968 -17.6000 163.500 -1 -17.6000 163.500 TC 65 -17.6085 163.437 4 -17.6000 163.500 TC 45 11 111
1968060S14167 1968 20 SP MM FLORENCE 1968-03-02 09:00:00 TS -17.8011 164.042 main 268 249 P________PP_P_ SH291968 -17.8000 164.050 -1 -17.8000 164.050 TC 65 -17.8047 164.017 4 -17.8000 164.050 TC 47 11 111
1968060S14167 1968 20 SP MM FLORENCE 1968-03-02 12:00:00 TS -18.0000 164.600 main 251 240 O________OO_O_ jtwc_sh SH291968 -18.0000 164.600 -1 -18.0000 164.600 TC 65 -18.0000 164.600 4 -18.0000 164.600 TC 50 11 111
1968060S14167 1968 20 SP MM FLORENCE 1968-03-02 15:00:00 TS -18.1955 165.100 main 243 235 P________PP_P_ SH291968 -18.1998 165.108 -1 -18.1998 165.108 TC 65 -18.1826 165.076 4 -18.1998 165.108 TC 50 10 113
1968060S14167 1968 20 SP MM FLORENCE 1968-03-02 18:00:00 TS -18.3921 165.587 main 241 237 O________OP_O_ jtwc_sh SH291968 -18.4000 165.600 -1 -18.4000 165.600 TC 65 -18.3683 165.549 4 -18.4000 165.600 TC 50 10 113
1968060S14167 1968 20 SP MM FLORENCE 1968-03-02 21:00:00 TS -18.5847 166.065 main 253 252 P________PP_P_ SH291968 -18.5921 166.070 -1 -18.5921 166.070 TC 65 -18.5699 166.048 4 -18.5846 166.070 TC 52 10 113
1968060S14167 1968 20 SP MM FLORENCE 1968-03-03 00:00:00 TS -18.8000 166.600 main 263 260 O________OO_O_ jtwc_sh SH291968 -18.8000 166.600 -1 -18.8000 166.600 TC 65 -18.8000 166.600 4 -18.8000 166.600 TC 55 12 112
1968060S14167 1968 20 SP MM FLORENCE 1968-03-03 03:00:00 TS -19.0449 167.269 main 269 269 P________PP_P_ SH291968 -19.0275 167.270 -1 -19.0275 167.270 TC 65 -19.0396 167.267 4 -19.0850 167.270 TC 57 14 112
1968060S14167 1968 20 SP MM FLORENCE 1968-03-03 06:00:00 TS -19.3278 167.996 main 302 302 O________OP_O_ jtwc_sh SH291968 -19.3000 168.000 -1 -19.3000 168.000 TC 65 -19.3112 167.986 4 -19.4000 168.000 TC 60 15 113
1968060S14167 1968 20 SP MM FLORENCE 1968-03-03 09:00:00 TS -19.6323 168.716 main 335 333 P________PP_P_ SH291968 -19.6124 168.715 -1 -19.6124 168.715 TC 65 -19.6271 168.711 4 -19.6775 168.723 TC 60 15 117
1968060S14167 1968 20 SP MM FLORENCE 1968-03-03 12:00:00 TS -20.0000 169.400 main 349 349 O________OO_O_ jtwc_sh SH291968 -20.0000 169.400 -1 -20.0000 169.400 TC 65 -20.0000 169.400 4 -20.0000 169.400 TC 60 15 124
1968060S14167 1968 20 SP MM FLORENCE 1968-03-03 15:00:00 TS -20.4633 170.014 main 364 364 P________PP_P_ SH291968 -20.4773 170.030 -1 -20.4773 170.030 TC 65 -20.4865 170.024 4 -20.4121 169.973 TC 62 15 132
1968060S14167 1968 20 SP MM FLORENCE 1968-03-03 18:00:00 TS -20.9805 170.576 main 395 395 O________OP_O_ jtwc_sh SH291968 -21.0000 170.600 -1 -21.0000 170.600 TC 65 -21.0218 170.603 4 -20.9000 170.500 TC 65 15 136
1968060S14167 1968 20 SP MM FLORENCE 1968-03-03 21:00:00 TS -21.5215 171.121 main 430 430 P________PP_P_ SH291968 -21.5299 171.137 -1 -21.5299 171.137 TC 65 -21.5462 171.130 4 -21.4801 171.079 TC 65 14 137
1968060S14167 1968 20 SP MM FLORENCE 1968-03-04 00:00:00 TS -22.0000 171.600 main 474 474 O________OO_O_ jtwc_sh SH291968 -22.0000 171.600 -1 -22.0000 171.600 TC 65 -22.0000 171.600 4 -22.0000 171.600 TC 65 11 135
1968060S14167 1968 20 SP MM FLORENCE 1968-03-04 03:00:00 TS -22.3335 171.986 main 514 514 P________PP_P_ SH291968 -22.3522 171.973 -1 -22.3522 171.973 TC 65 -22.3275 172.017 4 -22.3022 171.981 TC 62 9 131
1968060S14167 1968 20 SP MM FLORENCE 1968-03-04 06:00:00 TS -22.5691 172.319 main 545 545 O________OP_O_ jtwc_sh SH291968 -22.6000 172.300 -1 -22.6000 172.300 TC 65 -22.5763 172.377 4 -22.5000 172.300 TC 60 8 125
1968060S14167 1968 20 SP MM FLORENCE 1968-03-04 09:00:00 TS -22.7667 172.668 main 587 587 P________PP_P_ SH291968 -22.7875 172.658 -1 -22.7875 172.658 TC 65 -22.7621 172.698 4 -22.7300 172.657 TC 57 7 118
1968060S14167 1968 20 SP MM FLORENCE 1968-03-04 12:00:00 TS -22.9000 173.000 main 619 619 O________OO_O_ jtwc_sh SH291968 -22.9000 173.000 -1 -22.9000 173.000 TC 65 -22.9000 173.000 4 -22.9000 173.000 TC 55 6 109
1968060S14167 1968 20 SP MM FLORENCE 1968-03-04 15:00:00 TS -22.9694 173.317 main 650 650 P________PP_P_ SH291968 -22.9574 173.308 -1 -22.9574 173.308 TC 65 -22.9978 173.344 4 -22.9649 173.308 TC 52 6 101
1968060S14167 1968 20 SP MM FLORENCE 1968-03-04 18:00:00 TS -23.0144 173.617 main 669 657 O________OP_O_ jtwc_sh SH291968 -23.0000 173.600 -1 -23.0000 173.600 TC 65 -23.0575 173.668 4 -23.0000 173.600 TC 50 6 102
1968060S14167 1968 20 SP MM FLORENCE 1968-03-04 21:00:00 TS -23.0865 173.928 main 661 650 P________PP_P_ SH291968 -23.0775 173.915 -1 -23.0775 173.915 TC 65 -23.1135 173.959 4 -23.0775 173.923 TC 50 6 109
1968060S14167 1968 20 SP MM FLORENCE 1968-03-05 00:00:00 TS -23.2000 174.200 main 655 650 O________OO_O_ jtwc_sh SH291968 -23.2000 174.200 -1 -23.2000 174.200 TC 65 -23.2000 174.200 4 -23.2000 174.200 TC 50 5 123
1968060S14167 1968 20 SP MM FLORENCE 1968-03-05 03:00:00 TS -23.3807 174.415 main 664 660 P________PP_P_ SH291968 -23.3850 174.437 -1 -23.3850 174.437 TC 65 -23.3679 174.404 4 -23.3849 174.380 TC 50 5 140
1968060S14167 1968 20 SP MM FLORENCE 1968-03-05 06:00:00 TS -23.5924 174.564 main 675 675 O________OP_O_ jtwc_sh SH291968 -23.6000 174.600 -1 -23.6000 174.600 TC 65 -23.5697 174.555 4 -23.6000 174.500 TC 50 5 152
1968060S14167 1968 20 SP MM FLORENCE 1968-03-05 09:00:00 TS -23.8004 174.657 main 692 692 P________PP_P_ SH291968 -23.8075 174.673 -1 -23.8075 174.673 TC 65 -23.7867 174.654 4 -23.8000 174.630 TC 47 4 163
1968060S14167 1968 20 SP MM FLORENCE 1968-03-05 12:00:00 TS -24.0000 174.700 main 712 712 O________OO_O_ jtwc_sh SH291968 -24.0000 174.700 -1 -24.0000 174.700 TC 65 -24.0000 174.700 4 -24.0000 174.700 TC 45 4 168
1968060S14167 1968 20 SP MM FLORENCE 1968-03-05 15:00:00 TS -24.1530 174.744 main 733 733 P________PP_P_ SH291968 -24.1500 174.780 -1 -24.1500 174.780 TC 65 -24.1047 174.744 4 -24.2075 174.673 TC 45 3 172
1968060S14167 1968 20 SP MM FLORENCE 1968-03-05 18:00:00 TS -24.3036 174.733 main 743 743 O________OP_O_ jtwc_sh SH291968 -24.3000 174.800 -1 -24.3000 174.800 TC 65 -24.2145 174.733 4 -24.4000 174.600 TC 45 3 195
1968060S14167 1968 20 SP MM FLORENCE 1968-03-05 21:00:00 TS -24.4386 174.662 main 754 754 P________PP_P_ SH291968 -24.4399 174.702 -1 -24.4399 174.702 TC 65 -24.3921 174.655 4 -24.4824 174.587 TC 45 5 208
1968060S14167 1968 20 SP MM FLORENCE 1968-03-06 00:00:00 TS -24.7000 174.500 main 792 792 O________OO_O_ jtwc_sh SH291968 -24.7000 174.500 -1 -24.7000 174.500 TC 65 -24.7000 174.500 4 -24.7000 174.500 TC 45 9 206
1968060S14167 1968 20 SP MM FLORENCE 1968-03-06 03:00:00 TS -25.2111 174.240 main 800 800 P________PP_P_ SH291968 -25.1675 174.230 -1 -25.1675 174.230 TC 65 -25.2342 174.256 4 -25.2751 174.245 TC 42 13 204
1968060S14167 1968 20 SP MM FLORENCE 1968-03-06 06:00:00 TS -25.8739 173.909 main 807 803 O________OP_O_ jtwc_sh SH291968 -25.8000 173.900 -1 -25.8000 173.900 TC 65 -25.8956 173.935 4 -26.0000 173.900 TC 40 15 204
1968060S14167 1968 20 SP MM FLORENCE 1968-03-06 09:00:00 TS -26.6048 173.556 main 822 803 P________PP_P_ SH291968 -26.5725 173.551 -1 -26.5725 173.551 TC 65 -26.6092 173.571 4 -26.6650 173.550 TC 40 16 204
1968060S14167 1968 20 SP MM FLORENCE 1968-03-06 12:00:00 TS -27.3000 173.200 main 803 758 O________OO_O_ jtwc_sh SH291968 -27.3000 173.200 -1 -27.3000 173.200 TC 65 -27.3000 173.200 4 -27.3000 173.200 TC 40 13 207
1968060S14167 1968 20 SP MM FLORENCE 1968-03-06 15:00:00 TS -27.7651 172.902 main 747 702 P________PP_P_ SH291968 -27.7148 172.899 -1 -27.7148 172.899 TC 65 -27.7586 172.913 4 -27.8723 172.899 TC 40 10 210
1968060S14167 1968 20 SP MM FLORENCE 1968-03-06 18:00:00 TS -28.1997 172.605 main 702 647 O________OP_O_ jtwc_sh SH291968 -28.1000 172.600 -1 -28.1000 172.600 TC 65 -28.1987 172.622 4 -28.4000 172.600 TC 40 11 210
1968060S14167 1968 20 SP MM FLORENCE 1968-03-06 21:00:00 TS -28.7034 172.290 main 647 572 P________PP_P_ SH291968 -28.6448 172.286 -1 -28.6448 172.286 TC 65 -28.7145 172.295 4 -28.8097 172.293 TC 37 14 207
1968060S14167 1968 20 SP MM FLORENCE 1968-03-07 00:00:00 TS -29.4000 171.900 main 572 470 O________OO_O_ jtwc_sh SH291968 -29.4000 171.900 -1 -29.4000 171.900 TC 65 -29.4000 171.900 4 -29.4000 171.900 TC 35 19 205
1968060S14167 1968 20 SP MM FLORENCE 1968-03-07 03:00:00 TS -30.4141 171.369 main 470 374 P________PP_P_ SH291968 -30.4175 171.395 -1 -30.4175 171.395 TC 65 -30.3685 171.349 4 -30.4528 171.338 TC 35 24 204
1968060S14167 1968 20 SP MM FLORENCE 1968-03-07 06:00:00 TS -31.6021 170.756 main 364 299 O________OP_O_ jtwc_sh SH291968 -31.6000 170.800 -1 -31.6000 170.800 TC 65 -31.5086 170.724 4 -31.7000 170.700 TC 35 26 204
1968060S14167 1968 20 SP MM FLORENCE 1968-03-07 09:00:00 TS -32.7949 170.108 main 298 280 P________PP_P_ SH291968 -32.7928 170.136 -1 -32.7928 170.136 TC 65 -32.7440 170.086 4 -32.8500 170.077 TC 35 26 204
1968060S14167 1968 20 SP MM FLORENCE 1968-03-07 12:00:00 TS -34.0000 169.500 main 289 287 O________OO_O_ jtwc_sh SH291968 -34.0000 169.500 -1 -34.0000 169.500 TC 65 -34.0000 169.500 4 -34.0000 169.500 TC 35 25 201
1968060S14167 1968 20 SP MM FLORENCE 1968-03-07 15:00:00 TS -35.1650 169.004 main 336 336 P________PP_P_ SH291968 -35.1496 168.996 -1 -35.1496 168.996 TC 65 -35.2184 169.019 4 -35.1422 169.004 TC 32 24 197
1968060S14167 1968 20 SP MM FLORENCE 1968-03-07 18:00:00 TS -36.3248 168.608 main 413 413 O________OP_O_ jtwc_sh SH291968 -36.3000 168.600 -1 -36.3000 168.600 TC 65 -36.3993 168.631 4 -36.3000 168.600 TC 30 24 194
1968060S14167 1968 20 SP MM FLORENCE 1968-03-07 21:00:00 TS -37.5053 168.286 main 499 433 P________PP_P_ SH291968 -37.4877 168.282 -1 -37.4877 168.282 TC 65 -37.5559 168.302 4 -37.4901 168.279 TC 27 24 191
1968060S14167 1968 20 SP MM FLORENCE 1968-03-08 00:00:00 TS -38.7000 168.000 main 426 O________OO_O_ jtwc_sh SH291968 -38.7000 168.000 -1 -38.7000 168.000 TC 65 -38.7000 168.000 4 -38.7000 168.000 TC 25 24 191

Digital Typhoon Data and Search

About IBTrACS Database

This database is a web-friendly format of International Best Track Archive for Climate Stewardship (IBTrACS), a global best track data archive curated by NOAA dating back to 1842.

Updated: 2021-10-27